Archival Weather

Half Moon Bay

Half Moon Bay, California (KHAF)

Report from: Wednesday, December 6, 2023 10:55 AM PST
Current time: Saturday, February 24, 2024 7:46 AM PST

Current weather – Weather history – Daily summaries
Weather forecast

Present weatherMist
Temperature15.0°C (59.0°F)
Dew point15.0°C (59.0°F)
Winds 9 kts (4.6 m/s, 10.4 mph) South-Southeast (150°)
Visibility3 mi. (4.8 km)
Clouds Ceiling: Broken clouds 2,600 ft. (792 m)
Broken clouds 6,000 ft. (1,829 m)
Altimeter30.08 in.Hg (1019 mB)
Relative humidity100 %
Density altitude54 ft. (16 m)
Remarks Fully automated report
Automated weather observing station with precipitation discriminator
Flight conditions Marginal Visual Meteorological Conditions
Raw dataKHAF 061855Z AUTO 15009KT 3SM BR BKN026 BKN060 15/15 A3008 RMK AO2
An error has occurred. This application may no longer respond until reloaded. Reload 🗙